createdAt,value
2023-12-15T00:01:44.689Z,0.50
2023-12-15T00:04:11.933Z,0.50
2023-12-15T00:09:06.341Z,0.13
2023-12-15T00:11:33.764Z,0.52
2023-12-15T00:14:04.840Z,0.10
2023-12-15T00:16:32.182Z,0.20
2023-12-15T00:18:59.432Z,0.50
2023-12-15T00:21:26.724Z,0.28
2023-12-15T00:23:54.129Z,0.32
2023-12-15T00:26:21.410Z,0.28
2023-12-15T00:28:48.657Z,0.30
2023-12-15T00:31:17.248Z,0.30
2023-12-15T00:33:44.393Z,0.40
2023-12-15T00:36:11.896Z,0.25
2023-12-15T00:38:39.024Z,0.55
2023-12-15T00:41:06.753Z,0.52
2023-12-15T00:43:33.882Z,0.10
2023-12-15T00:46:01.616Z,0.60
2023-12-15T00:48:30.230Z,0.38
2023-12-15T00:50:57.601Z,0.20
2023-12-15T00:53:24.953Z,0.60
2023-12-15T00:55:53.081Z,0.47
2023-12-15T00:58:20.320Z,0.20
2023-12-15T01:00:47.580Z,0.38
2023-12-15T01:03:14.686Z,0.30
2023-12-15T01:05:43.413Z,0.10
2023-12-15T01:08:10.606Z,0.10
2023-12-15T01:10:40.449Z,0.30
2023-12-15T01:13:07.671Z,1.15
2023-12-15T01:15:35.581Z,0.17
2023-12-15T01:18:02.914Z,0.38
2023-12-15T01:20:30.293Z,0.68
2023-12-15T01:22:59.013Z,0.30
2023-12-15T01:25:26.096Z,0.32
2023-12-15T01:27:53.279Z,0.28
2023-12-15T01:30:20.510Z,0.17
2023-12-15T01:32:47.962Z,0.20
2023-12-15T01:35:15.341Z,0.22
2023-12-15T01:37:43.014Z,0.20
2023-12-15T01:40:12.733Z,0.20
2023-12-15T01:42:40.024Z,0.60
2023-12-15T01:45:08.231Z,0.60
2023-12-15T01:47:36.161Z,0.52
2023-12-15T01:50:03.774Z,0.30
2023-12-15T01:52:31.040Z,0.30
2023-12-15T01:54:58.183Z,0.63
2023-12-15T01:57:26.769Z,0.70
2023-12-15T01:59:53.993Z,0.50
2023-12-15T02:02:21.226Z,0.43
2023-12-15T02:04:48.481Z,0.45
2023-12-15T02:07:15.677Z,0.25
2023-12-15T02:09:43.054Z,1.10
2023-12-15T02:12:10.290Z,0.57
2023-12-15T02:14:39.112Z,1.52
2023-12-15T02:19:33.256Z,1.17
2023-12-15T02:22:00.302Z,1.15
2023-12-15T02:24:28.902Z,0.63
2023-12-15T02:26:57.000Z,0.50
2023-12-15T02:29:24.383Z,1.40
2023-12-15T02:31:51.600Z,0.65
2023-12-15T02:34:19.003Z,1.17
2023-12-15T02:36:46.246Z,1.33
2023-12-15T02:39:13.308Z,0.95
2023-12-15T02:41:41.815Z,1.63
2023-12-15T02:44:08.938Z,1.63
2023-12-15T02:46:37.667Z,0.68
2023-12-15T02:49:04.815Z,1.48
2023-12-15T02:51:32.744Z,1.10
2023-12-15T02:54:01.795Z,1.40
2023-12-15T02:56:29.328Z,2.05
2023-12-15T02:58:57.930Z,3.42
2023-12-15T03:01:25.108Z,2.33
2023-12-15T03:03:52.566Z,1.67
2023-12-15T03:06:19.888Z,1.45
2023-12-15T03:08:47.095Z,1.30
2023-12-15T03:11:14.761Z,0.95
2023-12-15T03:13:42.064Z,1.88
2023-12-15T03:16:11.728Z,1.13
2023-12-15T03:18:39.607Z,1.80
2023-12-15T03:21:07.282Z,3.03
2023-12-15T03:23:35.322Z,3.22
2023-12-15T03:26:02.590Z,2.90
2023-12-15T03:28:29.777Z,2.92
2023-12-15T03:30:56.885Z,3.83
2023-12-15T03:33:29.490Z,2.17
2023-12-15T03:35:56.697Z,6.82
2023-12-15T03:38:23.883Z,2.78
2023-12-15T03:40:51.344Z,3.60
2023-12-15T03:43:18.528Z,2.20
2023-12-15T03:45:45.717Z,1.77
2023-12-15T03:48:13.164Z,4.28
2023-12-15T03:50:42.024Z,4.15
2023-12-15T03:55:36.577Z,2.75
2023-12-15T03:58:03.961Z,4.38
2023-12-15T04:00:31.280Z,2.33
2023-12-15T04:02:58.488Z,3.42
2023-12-15T04:05:25.705Z,2.60
2023-12-15T04:07:54.311Z,2.08
2023-12-15T04:10:21.622Z,3.38
2023-12-15T04:12:48.803Z,5.13
2023-12-15T04:15:19.606Z,2.63
2023-12-15T04:17:47.283Z,3.17
2023-12-15T04:20:14.677Z,2.80
2023-12-15T04:22:42.072Z,2.95
2023-12-15T04:25:10.832Z,3.83
2023-12-15T04:30:09.105Z,2.83
2023-12-15T04:32:36.291Z,4.93
2023-12-15T04:35:03.988Z,5.65
2023-12-15T04:37:30.960Z,3.42
2023-12-15T04:39:58.029Z,3.50
2023-12-15T04:42:26.519Z,3.97
2023-12-15T04:44:53.606Z,3.33
2023-12-15T04:47:20.574Z,3.45
2023-12-15T04:49:48.180Z,6.15
2023-12-15T04:52:15.086Z,6.53
2023-12-15T04:54:42.164Z,3.35
2023-12-15T04:57:09.112Z,2.38
2023-12-15T04:59:41.238Z,4.80
2023-12-15T05:02:08.633Z,3.30
2023-12-15T05:04:37.287Z,2.90
2023-12-15T05:07:06.137Z,1.67
2023-12-15T05:09:33.233Z,2.20
2023-12-15T05:12:00.431Z,2.47
2023-12-15T05:14:27.554Z,2.63
2023-12-15T05:16:56.032Z,2.35
2023-12-15T05:19:23.130Z,2.13
2023-12-15T05:21:50.223Z,2.00
2023-12-15T05:24:17.365Z,1.55
2023-12-15T05:26:44.893Z,2.67
2023-12-15T05:29:12.319Z,2.28
2023-12-15T05:31:39.490Z,5.30
2023-12-15T05:34:07.945Z,1.45
2023-12-15T05:36:35.187Z,2.97
2023-12-15T05:39:03.590Z,1.83
2023-12-15T05:41:30.992Z,3.70
2023-12-15T05:43:58.076Z,3.63
2023-12-15T05:46:25.169Z,4.80
2023-12-15T05:48:52.339Z,2.47
2023-12-15T05:51:20.961Z,3.63
2023-12-15T05:53:55.225Z,2.70
2023-12-15T05:56:25.539Z,4.50
2023-12-15T05:58:52.720Z,3.58
2023-12-15T06:01:19.777Z,3.35
2023-12-15T06:03:46.823Z,4.75
2023-12-15T06:06:14.292Z,4.18
2023-12-15T06:08:42.777Z,2.67
2023-12-15T06:11:11.757Z,2.42
2023-12-15T06:13:40.491Z,4.38
2023-12-15T06:18:37.280Z,2.22
2023-12-15T06:21:04.687Z,3.05
2023-12-15T06:23:34.261Z,3.38
2023-12-15T06:26:02.758Z,3.30
2023-12-15T06:28:29.707Z,3.55
2023-12-15T06:30:56.816Z,3.85
2023-12-15T06:33:23.922Z,2.67
2023-12-15T06:35:51.047Z,3.65
2023-12-15T06:38:18.116Z,2.08
2023-12-15T06:40:45.270Z,4.20
2023-12-15T06:43:13.726Z,4.15
2023-12-15T06:45:40.818Z,4.25
2023-12-15T06:48:07.976Z,3.10
2023-12-15T06:50:35.248Z,2.47
2023-12-15T06:53:02.287Z,4.93
2023-12-15T06:55:29.330Z,1.85
2023-12-15T06:57:56.281Z,4.68
2023-12-15T07:00:24.686Z,3.10
2023-12-15T07:02:51.744Z,3.38
2023-12-15T07:05:18.756Z,2.97
2023-12-15T07:07:45.919Z,5.03
2023-12-15T07:10:12.986Z,3.55
2023-12-15T07:12:40.138Z,4.18
2023-12-15T07:15:08.778Z,2.05
2023-12-15T07:17:37.831Z,1.88
2023-12-15T07:20:06.717Z,3.10
2023-12-15T07:22:33.872Z,2.92
2023-12-15T07:25:01.274Z,2.75
2023-12-15T07:27:28.218Z,4.13
2023-12-15T07:29:56.127Z,2.22
2023-12-15T07:32:23.178Z,3.00
2023-12-15T07:34:52.359Z,1.80
2023-12-15T07:37:19.301Z,2.03
2023-12-15T07:39:46.358Z,2.97
2023-12-15T07:42:13.460Z,4.20
2023-12-15T07:44:40.756Z,2.80
2023-12-15T07:47:07.909Z,1.88
2023-12-15T07:49:35.835Z,6.68
2023-12-15T07:52:05.282Z,3.47
2023-12-15T07:54:32.407Z,3.90
2023-12-15T07:56:59.390Z,2.55
2023-12-15T07:59:26.779Z,3.50
2023-12-15T08:01:56.318Z,2.33
2023-12-15T08:04:23.489Z,2.03
2023-12-15T08:06:50.489Z,3.58
2023-12-15T08:09:18.982Z,4.35
2023-12-15T08:11:46.090Z,2.33
2023-12-15T08:14:13.443Z,1.75
2023-12-15T08:16:41.235Z,3.95
2023-12-15T08:19:09.828Z,2.47
2023-12-15T08:24:04.338Z,2.33
2023-12-15T08:26:33.966Z,2.13
2023-12-15T08:29:01.012Z,3.05
2023-12-15T08:31:28.039Z,2.22
2023-12-15T08:33:57.944Z,2.63
2023-12-15T08:36:24.998Z,1.88
2023-12-15T08:38:52.062Z,2.65
2023-12-15T08:41:19.058Z,2.70
2023-12-15T08:43:47.463Z,2.22
2023-12-15T08:46:14.507Z,5.05
2023-12-15T08:48:41.530Z,2.30
2023-12-15T08:51:09.145Z,2.15
2023-12-15T08:53:36.186Z,3.33
2023-12-15T08:56:03.532Z,4.55
2023-12-15T08:58:30.551Z,3.15
2023-12-15T09:00:58.964Z,2.92
2023-12-15T09:03:26.055Z,3.22
2023-12-15T09:06:16.337Z,5.00
2023-12-15T09:08:40.438Z,3.97
2023-12-15T09:11:07.770Z,3.30
2023-12-15T09:13:35.330Z,5.70
2023-12-15T09:16:03.927Z,2.85
2023-12-15T09:20:58.151Z,3.97
2023-12-15T09:23:25.335Z,6.07
2023-12-15T09:25:53.104Z,3.28
2023-12-15T09:28:22.543Z,3.03
2023-12-15T09:30:49.572Z,3.15
2023-12-15T09:33:18.256Z,3.50
2023-12-15T09:35:45.444Z,2.92
2023-12-15T09:38:13.890Z,2.65
2023-12-15T09:40:42.490Z,4.35
2023-12-15T09:43:09.548Z,3.30
2023-12-15T09:45:38.525Z,2.17
2023-12-15T09:48:08.377Z,4.57
2023-12-15T09:50:41.245Z,5.53
2023-12-15T09:53:08.524Z,5.38
2023-12-15T09:55:35.706Z,6.03
2023-12-15T09:58:02.766Z,4.50
2023-12-15T10:00:31.391Z,2.10
2023-12-15T10:05:28.359Z,3.95
2023-12-15T10:07:56.958Z,2.88
2023-12-15T10:10:27.027Z,6.65
2023-12-15T10:12:55.947Z,3.35
2023-12-15T10:15:25.501Z,3.15
2023-12-15T10:17:54.877Z,2.38
2023-12-15T10:20:21.939Z,3.58
2023-12-15T10:22:49.268Z,4.47
2023-12-15T10:25:20.928Z,3.88
2023-12-15T10:27:49.016Z,4.22
2023-12-15T10:30:16.667Z,2.40
2023-12-15T10:32:44.197Z,2.55
2023-12-15T10:35:11.757Z,4.25
2023-12-15T10:37:39.080Z,3.70
2023-12-15T10:40:07.730Z,3.15
2023-12-15T10:42:37.133Z,4.63
2023-12-15T10:45:07.191Z,5.55
2023-12-15T10:47:35.085Z,4.28
2023-12-15T10:50:03.329Z,5.97
2023-12-15T10:52:34.736Z,5.22
2023-12-15T10:55:05.083Z,4.30
2023-12-15T10:57:32.266Z,3.30
2023-12-15T11:00:00.726Z,3.50
2023-12-15T11:02:29.424Z,3.75
2023-12-15T11:04:56.606Z,2.33
2023-12-15T11:07:25.959Z,3.15
2023-12-15T11:09:53.000Z,4.10
2023-12-15T11:12:24.783Z,1.60
2023-12-15T11:14:53.308Z,1.52
2023-12-15T11:17:21.937Z,2.17
2023-12-15T11:19:52.270Z,2.78
2023-12-15T11:22:19.466Z,2.33
2023-12-15T11:24:46.507Z,2.17
2023-12-15T11:27:16.555Z,6.03
2023-12-15T11:29:43.659Z,6.43
2023-12-15T11:32:31.838Z,2.67
2023-12-15T11:34:59.124Z,1.95
2023-12-15T11:37:27.320Z,2.22
2023-12-15T11:39:55.449Z,2.75
2023-12-15T11:42:23.013Z,2.72
2023-12-15T11:44:50.480Z,2.33
2023-12-15T11:47:17.572Z,2.58
2023-12-15T11:49:46.268Z,2.03
2023-12-15T11:52:13.839Z,2.15
2023-12-15T11:54:40.849Z,3.22
2023-12-15T11:57:08.070Z,4.10
2023-12-15T11:59:41.316Z,5.25
2023-12-15T12:02:08.533Z,4.85
2023-12-15T12:04:35.595Z,3.05
2023-12-15T12:07:04.506Z,2.42
2023-12-15T12:11:58.768Z,4.38
2023-12-15T12:14:28.622Z,1.85
2023-12-15T12:16:57.418Z,2.60
2023-12-15T12:21:54.473Z,2.90
2023-12-15T12:24:22.986Z,2.33
2023-12-15T12:26:51.941Z,1.92
2023-12-15T12:29:19.249Z,2.45
2023-12-15T12:31:46.559Z,2.92
2023-12-15T12:34:13.725Z,3.40
2023-12-15T12:36:40.715Z,2.58
2023-12-15T12:39:07.896Z,3.47
2023-12-15T12:41:36.399Z,2.55
2023-12-15T12:44:03.897Z,1.98
2023-12-15T12:46:32.280Z,5.15
2023-12-15T12:48:59.395Z,1.63
2023-12-15T12:51:26.495Z,2.70
2023-12-15T12:53:53.593Z,3.28
2023-12-15T12:56:22.763Z,3.08
2023-12-15T12:58:51.415Z,3.15
2023-12-15T13:01:18.499Z,2.75
2023-12-15T13:03:46.374Z,4.45
2023-12-15T13:06:13.441Z,2.50
2023-12-15T13:08:41.530Z,2.53
2023-12-15T13:11:08.662Z,2.97
2023-12-15T13:13:35.701Z,3.95
2023-12-15T13:16:04.590Z,3.28
2023-12-15T13:18:31.882Z,2.28
2023-12-15T13:21:00.047Z,2.08
2023-12-15T13:23:27.236Z,2.08
2023-12-15T13:25:54.285Z,4.00
2023-12-15T13:28:21.621Z,2.97
2023-12-15T13:30:48.642Z,4.22
2023-12-15T13:33:17.653Z,2.55
2023-12-15T13:35:44.851Z,6.40
2023-12-15T13:38:12.046Z,3.00
2023-12-15T13:40:39.142Z,3.65
2023-12-15T13:43:06.494Z,2.30
2023-12-15T13:45:33.519Z,3.70
2023-12-15T13:48:00.842Z,2.78
2023-12-15T13:50:29.623Z,3.63
2023-12-15T13:52:56.778Z,5.97
2023-12-15T13:55:24.323Z,6.82
2023-12-15T13:57:52.897Z,9.30
2023-12-15T14:00:20.403Z,5.80
2023-12-15T14:02:47.694Z,4.63
2023-12-15T14:05:15.247Z,6.20
2023-12-15T14:07:44.080Z,6.10
2023-12-15T14:10:14.345Z,5.35
2023-12-15T14:12:45.782Z,2.85
2023-12-15T14:15:13.042Z,1.67
2023-12-15T14:17:40.812Z,2.15
2023-12-15T14:20:09.135Z,3.83
2023-12-15T14:22:37.528Z,2.10
2023-12-15T14:25:08.448Z,0.98
2023-12-15T14:27:36.284Z,1.05
2023-12-15T14:30:08.889Z,0.57
2023-12-15T14:32:36.529Z,0.98
2023-12-15T14:35:04.726Z,0.63
2023-12-15T14:37:32.130Z,0.63
2023-12-15T14:39:59.790Z,0.77
2023-12-15T14:42:28.490Z,0.45
2023-12-15T14:44:55.758Z,0.40
2023-12-15T14:47:23.115Z,0.75
2023-12-15T14:49:50.414Z,0.55
2023-12-15T14:52:18.526Z,1.33
2023-12-15T14:54:45.706Z,1.05
2023-12-15T14:57:13.751Z,2.85
2023-12-15T14:59:42.657Z,1.67
2023-12-15T15:02:11.300Z,1.38
2023-12-15T15:04:38.447Z,0.93
2023-12-15T15:07:05.914Z,0.55
2023-12-15T15:09:33.815Z,0.63
2023-12-15T15:12:00.978Z,0.52
2023-12-15T15:14:28.301Z,1.13
2023-12-15T15:16:56.961Z,0.22
2023-12-15T15:19:24.243Z,0.32
2023-12-15T15:21:51.565Z,0.32
2023-12-15T15:24:18.928Z,0.22
2023-12-15T15:26:46.238Z,0.40
2023-12-15T15:29:13.611Z,0.98
2023-12-15T15:31:41.913Z,0.30
2023-12-15T15:34:10.643Z,0.65
2023-12-15T15:36:39.246Z,0.40
2023-12-15T15:39:06.394Z,0.55
2023-12-15T15:41:33.733Z,0.32
2023-12-15T15:44:06.133Z,3.60
2023-12-15T15:46:38.230Z,1.65
2023-12-15T15:49:05.384Z,2.25
2023-12-15T15:51:34.245Z,1.13
2023-12-15T15:56:28.317Z,0.77
2023-12-15T15:58:57.600Z,1.25
2023-12-15T16:01:32.491Z,1.85
2023-12-15T16:04:05.343Z,1.33
2023-12-15T16:06:34.180Z,3.25
2023-12-15T16:09:01.287Z,1.70
2023-12-15T16:11:28.535Z,1.42
2023-12-15T16:14:02.143Z,1.42
2023-12-15T16:16:33.327Z,1.50
2023-12-15T16:19:00.639Z,1.45
2023-12-15T16:21:27.948Z,0.35
2023-12-15T16:23:58.886Z,1.77
2023-12-15T16:26:26.657Z,1.20
2023-12-15T16:28:53.839Z,1.02
2023-12-15T16:31:21.155Z,1.92
2023-12-15T16:33:48.618Z,2.22
2023-12-15T16:36:30.862Z,0.60
2023-12-15T16:38:59.547Z,0.52
2023-12-15T16:41:28.224Z,1.95
2023-12-15T16:43:55.564Z,1.02
2023-12-15T16:46:22.852Z,0.75
2023-12-15T16:48:55.936Z,2.60
2023-12-15T16:51:28.392Z,0.47
2023-12-15T16:53:55.865Z,0.40
2023-12-15T16:56:24.849Z,0.47
2023-12-15T16:58:52.226Z,0.45
2023-12-15T17:01:19.722Z,1.02
2023-12-15T17:03:47.460Z,0.75
2023-12-15T17:06:15.151Z,2.72
2023-12-15T17:08:45.482Z,2.22
2023-12-15T17:11:13.472Z,1.10
2023-12-15T17:13:42.098Z,1.20
2023-12-15T17:16:14.293Z,1.67
2023-12-15T17:18:41.712Z,2.65
2023-12-15T17:21:12.705Z,2.90
2023-12-15T17:23:39.975Z,2.70
2023-12-15T17:26:07.209Z,1.50
2023-12-15T17:28:34.414Z,2.80
2023-12-15T17:31:05.444Z,3.10
2023-12-15T17:33:32.984Z,2.95
2023-12-15T17:36:00.357Z,3.67
2023-12-15T17:38:27.657Z,3.38
2023-12-15T17:40:54.866Z,1.70
2023-12-15T17:43:24.403Z,5.82
2023-12-15T17:45:51.750Z,6.38
2023-12-15T17:48:21.862Z,5.95
2023-12-15T17:50:49.727Z,3.80
2023-12-15T17:53:17.128Z,3.80
2023-12-15T17:55:44.330Z,5.28
2023-12-15T17:58:13.031Z,6.40
2023-12-15T18:00:43.277Z,5.18
2023-12-15T18:03:11.320Z,1.30
2023-12-15T18:05:40.209Z,2.92
2023-12-15T18:08:07.388Z,2.95
2023-12-15T18:10:34.549Z,1.17
2023-12-15T18:13:01.798Z,2.17
2023-12-15T18:15:47.906Z,1.90
2023-12-15T18:18:15.218Z,1.60
2023-12-15T18:20:43.797Z,2.03
2023-12-15T18:23:14.803Z,3.88
2023-12-15T18:25:42.453Z,4.97
2023-12-15T18:28:16.117Z,1.92
2023-12-15T18:30:47.770Z,1.30
2023-12-15T18:33:15.668Z,0.63
2023-12-15T18:35:44.938Z,2.17
2023-12-15T18:38:12.303Z,2.10
2023-12-15T18:40:39.447Z,2.38
2023-12-15T18:43:07.093Z,3.05
2023-12-15T18:45:34.684Z,2.78
2023-12-15T18:48:01.942Z,4.25
2023-12-15T18:50:29.388Z,6.35
2023-12-15T18:52:58.335Z,2.35
2023-12-15T18:57:53.272Z,1.75
2023-12-15T19:00:22.710Z,1.88
2023-12-15T19:02:51.052Z,0.75
2023-12-15T19:05:18.601Z,1.77
2023-12-15T19:07:49.042Z,1.55
2023-12-15T19:10:18.141Z,1.83
2023-12-15T19:12:46.937Z,1.65
2023-12-15T19:17:41.817Z,1.23
2023-12-15T19:20:10.687Z,0.90
2023-12-15T19:22:37.921Z,1.15
2023-12-15T19:25:06.165Z,0.68
2023-12-15T19:27:36.421Z,2.53
2023-12-15T19:30:05.735Z,3.33
2023-12-15T19:32:35.937Z,4.80
2023-12-15T19:35:04.386Z,8.35
2023-12-15T19:37:32.614Z,8.50
2023-12-15T19:40:02.908Z,3.10
2023-12-15T19:42:32.710Z,2.40
2023-12-15T19:45:02.048Z,3.90
2023-12-15T19:47:29.220Z,1.20
2023-12-15T19:49:56.496Z,2.40
2023-12-15T19:52:25.252Z,1.33
2023-12-15T19:54:52.561Z,1.92
2023-12-15T19:57:19.804Z,8.98
2023-12-15T19:59:47.595Z,4.50
2023-12-15T20:02:16.189Z,1.40
2023-12-15T20:04:43.749Z,3.17
2023-12-15T20:07:11.289Z,1.60
2023-12-15T20:09:38.467Z,5.60
2023-12-15T20:12:06.313Z,3.28
2023-12-15T20:14:33.555Z,3.17
2023-12-15T20:17:01.636Z,1.48
2023-12-15T20:19:30.286Z,1.70
2023-12-15T20:21:59.929Z,0.95
2023-12-15T20:24:27.902Z,1.65
2023-12-15T20:26:54.994Z,0.68
2023-12-15T20:29:22.251Z,0.73
2023-12-15T20:31:49.448Z,1.25
2023-12-15T20:34:17.706Z,2.28
2023-12-15T20:36:46.522Z,1.00
2023-12-15T20:39:16.591Z,0.45
2023-12-15T20:41:44.671Z,1.15
2023-12-15T20:44:14.856Z,0.32
2023-12-15T20:46:44.021Z,0.52
2023-12-15T20:49:11.405Z,0.30
2023-12-15T20:51:38.793Z,0.80
2023-12-15T20:54:07.540Z,0.55
2023-12-15T20:56:34.736Z,0.45
2023-12-15T20:59:01.930Z,0.98
2023-12-15T21:01:29.272Z,0.22
2023-12-15T21:03:58.140Z,2.22
2023-12-15T21:06:26.035Z,0.73
2023-12-15T21:08:53.425Z,0.90
2023-12-15T21:11:22.252Z,2.30
2023-12-15T21:13:52.729Z,1.25
2023-12-15T21:16:24.976Z,1.60
2023-12-15T21:18:52.563Z,2.38
2023-12-15T21:21:26.731Z,1.83
2023-12-15T21:23:53.774Z,2.42
2023-12-15T21:26:22.514Z,1.63
2023-12-15T21:28:49.738Z,1.98
2023-12-15T21:31:17.546Z,1.15
2023-12-15T21:33:44.935Z,0.60
2023-12-15T21:36:12.340Z,0.65
2023-12-15T21:38:40.562Z,2.65
2023-12-15T21:41:08.389Z,1.15
2023-12-15T21:43:36.985Z,1.35
2023-12-15T21:46:04.667Z,3.97
2023-12-15T21:48:33.372Z,0.82
2023-12-15T21:51:00.775Z,0.85
2023-12-15T21:53:27.983Z,0.75
2023-12-15T21:55:55.132Z,1.63
2023-12-15T21:58:22.324Z,0.47
2023-12-15T22:00:51.205Z,1.83
2023-12-15T22:03:19.111Z,0.43
2023-12-15T22:05:47.449Z,0.45
2023-12-15T22:08:14.706Z,0.47
2023-12-15T22:10:41.995Z,0.82
2023-12-15T22:13:09.251Z,0.52
2023-12-15T22:15:36.490Z,0.43
2023-12-15T22:18:05.241Z,0.63
2023-12-15T22:20:32.634Z,0.38
2023-12-15T22:23:00.098Z,0.63
2023-12-15T22:25:27.461Z,0.82
2023-12-15T22:27:54.758Z,0.60
2023-12-15T22:30:26.499Z,0.28
2023-12-15T22:32:54.068Z,0.98
2023-12-15T22:35:22.596Z,1.67
2023-12-15T22:37:49.938Z,0.45
2023-12-15T22:40:17.316Z,0.63
2023-12-15T22:42:45.057Z,0.77
2023-12-15T22:45:12.657Z,0.35
2023-12-15T22:47:40.199Z,0.95
2023-12-15T22:50:08.826Z,0.22
2023-12-15T22:52:37.884Z,0.82
2023-12-15T22:55:05.935Z,0.35
2023-12-15T22:57:33.148Z,0.68
2023-12-15T23:00:00.425Z,0.38
2023-12-15T23:02:27.553Z,0.63
2023-12-15T23:04:54.844Z,0.65
2023-12-15T23:07:22.117Z,2.30
2023-12-15T23:09:50.731Z,0.30
2023-12-15T23:12:18.075Z,1.15
2023-12-15T23:14:45.482Z,0.50
2023-12-15T23:17:12.674Z,0.20
2023-12-15T23:19:39.881Z,0.40
2023-12-15T23:22:07.251Z,0.60
2023-12-15T23:24:35.509Z,0.50
2023-12-15T23:27:04.733Z,1.50
2023-12-15T23:29:34.449Z,0.47
2023-12-15T23:32:02.663Z,0.68
2023-12-15T23:34:30.058Z,0.50
2023-12-15T23:36:57.385Z,1.80
2023-12-15T23:39:24.593Z,2.17
2023-12-15T23:41:51.708Z,0.40
2023-12-15T23:44:22.021Z,0.32
2023-12-15T23:46:49.197Z,0.45
2023-12-15T23:49:16.523Z,0.32
2023-12-15T23:51:43.975Z,0.55
2023-12-15T23:54:11.166Z,0.63
2023-12-15T23:56:38.264Z,0.32
2023-12-15T23:59:05.505Z,0.70
